Startpagina
METAR-TAF:

METAR-TAF

Vliegvelden :

Luchthaven Shanghai Pudong

Shanghai-Pudong, China

breedte: 31-07N, lengte: 121-46E, hoogte: 4 m

Actueel weer

Dit bericht is 35 minuten geleden gemaakt, om 23:00 UTC
Wind 14 kt uit het zuidoosten
Temperatuur 28°C
Vochtigheid 84%
Druk 1006 hPa
Zicht 10 km of meer
geen wolken onder 1500 m en geen cumulonimbus

METAR: ZSPD 182300Z 13007MPS CAVOK 28/25 Q1006 NOSIG

Tijdstip: 07:35 (23:35 UTC)

Verwachting

Dit bericht is 8 uur en het 21 minuten geleden gemaakt, om 15:14 UTC
Verwachting geldig van 18 om 18 UTC tot 19 om 18 UTC
Wind 16 kt uit het zuidoosten
Zicht: 6000 m
Gebroken wolken op 1100 ft

TAF: ZSPD 181514Z 1818/1918 14008MPS 6000 BKN011 TX32/1906Z TN26/1821Z

Waarnemingen en weersverwachtingen van meer dan 4000 vliegvelden (METAR en TAF).

De beschikbare stations zijn de gele en rode punten op de kaart.

Ga met uw muis naar het station om de naam te zien.

Klik dan om waarnemingen en weersverwachtingen te zien.

kaart wijzigen: klik op de groene knoppen met een zwart kruis om in te zoomen, op de groene knop met een streepje om uit te zoomen of op de groene pijlen voor aangrenzende kaarten.


METAR-TAF: